Time;durP1;ratioP1;P1;durP2;ratioP2;P2;SDS_P1;SDS_P2;PMS_P1;PMS_P2;Temp;Humidity;BMP_temperature;BMP_pressure;BME280_temperature;BME280_humidity;BME280_pressure;Samples;Min_cycle;Max_cycle;Signal;HPM_P1;HPM_P2
2024/01/26 00:02:04;;;;;;;0.10;0.10;;;;;;;11.07;76.06;100218.41;7358005;19;20009;-63
2024/01/26 00:04:30;;;;;;;0.10;0.10;;;;;;;11.01;76.84;100223.84;7363296;19;20474;-63
2024/01/26 00:06:55;;;;;;;0.10;0.10;;;;;;;10.93;76.24;100225.84;7353650;19;20040;-63
2024/01/26 00:09:21;;;;;;;0.10;0.10;;;;;;;10.87;76.21;100250.38;7355206;19;20019;-63
2024/01/26 00:11:46;;;;;;;0.10;0.10;;;;;;;10.73;76.67;100238.66;7365367;19;20014;-63
2024/01/26 00:14:12;;;;;;;0.03;0.03;;;;;;;10.61;76.77;100238.13;7362526;19;20014;-63
2024/01/26 00:16:38;;;;;;;0.10;0.10;;;;;;;10.76;76.63;100264.69;7366979;19;20010;-63
2024/01/26 00:19:04;;;;;;;0.03;0.03;;;;;;;10.72;76.79;100281.34;7363369;19;20984;-63
2024/01/26 00:21:30;;;;;;;0.10;0.10;;;;;;;10.67;76.42;100271.03;7358255;19;20382;-63
2024/01/26 00:23:55;;;;;;;0.10;0.10;;;;;;;10.60;77.13;100279.97;7365222;19;20018;-64
2024/01/26 00:26:21;;;;;;;0.10;0.10;;;;;;;10.58;77.07;100303.50;7367706;19;20032;-63
2024/01/26 00:28:46;;;;;;;0.08;0.08;;;;;;;10.55;77.16;100318.41;7368379;19;20019;-64
2024/01/26 00:31:16;;;;;;;0.10;0.10;;;;;;;10.52;77.30;100316.72;7370516;19;20018;-63
2024/01/26 00:33:42;;;;;;;0.10;0.10;;;;;;;10.48;77.24;100328.16;7365606;19;20022;-64
2024/01/26 00:36:08;;;;;;;0.10;0.10;;;;;;;10.46;77.35;100344.78;7369049;19;20012;-63
2024/01/26 00:38:33;;;;;;;0.10;0.10;;;;;;;10.32;77.29;100334.69;7364068;19;20015;-64
2024/01/26 00:40:59;;;;;;;0.10;0.10;;;;;;;10.40;77.27;100361.47;7369502;19;20018;-62
2024/01/26 00:43:24;;;;;;;0.10;0.10;;;;;;;10.21;76.92;100360.22;7372571;19;20014;-63
2024/01/26 00:45:49;;;;;;;0.10;0.10;;;;;;;10.13;76.71;100382.13;7371903;19;20027;-63
2024/01/26 00:48:15;;;;;;;0.10;0.10;;;;;;;10.07;75.85;100416.19;7371187;19;20459;-63
2024/01/26 00:50:40;;;;;;;0.10;0.10;;;;;;;10.08;75.95;100428.34;7362489;19;20006;-63
2024/01/26 00:53:06;;;;;;;0.10;0.10;;;;;;;9.87;75.91;100423.66;7364347;19;20027;-63
2024/01/26 00:55:31;;;;;;;0.10;0.10;;;;;;;9.84;76.37;100429.81;7370842;19;20053;-63
2024/01/26 00:57:57;;;;;;;0.10;0.10;;;;;;;9.67;76.24;100415.47;7370050;19;20011;-63
2024/01/26 01:00:26;;;;;;;0.10;0.10;;;;;;;9.66;76.62;100421.56;7373862;19;20489;-63
2024/01/26 01:02:53;;;;;;;0.08;0.08;;;;;;;9.58;76.39;100459.13;7373573;19;20767;-63
2024/01/26 01:05:19;;;;;;;0.10;0.10;;;;;;;9.36;76.88;100429.19;7365416;19;20070;-64
2024/01/26 01:07:45;;;;;;;0.05;0.05;;;;;;;9.44;76.62;100449.88;7363222;19;20105;-64
2024/01/26 01:10:11;;;;;;;0.10;0.10;;;;;;;9.26;76.51;100446.75;7367669;19;20006;-64
2024/01/26 01:12:43;;;;;;;0.10;0.10;;;;;;;9.28;76.42;100465.00;7365785;19;20014;-63
2024/01/26 01:15:13;;;;;;;0.10;0.10;;;;;;;9.13;76.97;100486.16;7375177;19;20022;-64
2024/01/26 01:17:43;;;;;;;0.10;0.10;;;;;;;9.22;76.80;100543.25;7365849;19;20007;-64
2024/01/26 01:20:10;;;;;;;0.10;0.10;;;;;;;9.15;77.36;100528.66;7365760;19;20733;-64
2024/01/26 01:22:37;;;;;;;0.10;0.10;;;;;;;9.09;77.01;100559.13;7370591;19;20018;-63
2024/01/26 01:25:06;;;;;;;0.10;0.10;;;;;;;9.04;77.29;100563.59;7366676;19;20018;-63
2024/01/26 01:27:32;;;;;;;0.00;0.00;;;;;;;8.83;77.09;100510.16;7369357;19;20346;-63
2024/01/26 01:29:58;;;;;;;0.10;0.10;;;;;;;8.87;76.75;100513.56;7365008;19;20010;-64
2024/01/26 01:32:23;;;;;;;0.00;0.00;;;;;;;8.71;77.43;100514.72;7364778;19;20024;-63
2024/01/26 01:34:49;;;;;;;0.10;0.10;;;;;;;8.73;77.74;100552.00;7367020;19;20011;-63
2024/01/26 01:37:14;;;;;;;0.10;0.10;;;;;;;8.69;77.38;100545.97;7368497;19;20025;-63
2024/01/26 01:39:39;;;;;;;0.10;0.10;;;;;;;8.66;77.34;100558.19;7361024;19;20018;-63
2024/01/26 01:42:13;;;;;;;0.10;0.10;;;;;;;8.66;77.43;100571.19;7364917;19;20015;-63
2024/01/26 01:44:39;;;;;;;0.10;0.10;;;;;;;8.58;77.86;100581.75;7364204;19;20006;-64
2024/01/26 01:47:05;;;;;;;0.10;0.10;;;;;;;8.41;77.93;100569.00;7373574;19;20021;-63
2024/01/26 01:49:30;;;;;;;0.10;0.10;;;;;;;8.51;77.73;100580.97;7372703;19;20086;-63
2024/01/26 01:51:59;;;;;;;0.10;0.10;;;;;;;8.41;77.85;100595.00;7376658;19;20017;-64
2024/01/26 01:54:26;;;;;;;0.10;0.10;;;;;;;8.31;77.96;100588.19;7365053;19;20393;-64
2024/01/26 01:56:53;;;;;;;0.00;0.00;;;;;;;8.33;77.65;100618.53;7368605;19;20018;-64
2024/01/26 01:59:20;;;;;;;0.10;0.10;;;;;;;8.27;78.09;100630.78;7363924;19;20017;-64
2024/01/26 02:01:46;;;;;;;0.00;0.00;;;;;;;8.37;77.36;100666.22;7359952;19;20038;-64
2024/01/26 02:04:11;;;;;;;0.00;0.00;;;;;;;8.29;77.65;100657.63;7363173;19;20068;-64
2024/01/26 02:06:37;;;;;;;0.10;0.10;;;;;;;8.16;77.55;100654.34;7366328;19;20014;-64
2024/01/26 02:09:02;;;;;;;0.00;0.00;;;;;;;8.26;77.95;100683.66;7367679;19;20007;-64
2024/01/26 02:11:28;;;;;;;0.10;0.10;;;;;;;8.25;77.82;100697.56;7366540;19;20022;-64
2024/01/26 02:13:53;;;;;;;0.00;0.00;;;;;;;8.15;78.05;100690.75;7369839;19;20020;-64
2024/01/26 02:16:19;;;;;;;0.10;0.10;;;;;;;7.93;77.93;100665.03;7374471;19;20025;-64
2024/01/26 02:18:44;;;;;;;0.10;0.10;;;;;;;8.11;77.48;100720.28;7364282;19;20046;-64
2024/01/26 02:21:09;;;;;;;0.10;0.10;;;;;;;8.12;77.65;100724.63;7364330;19;20046;-64
2024/01/26 02:23:41;;;;;;;0.10;0.10;;;;;;;8.07;77.34;100735.09;7368163;19;20612;-64
2024/01/26 02:26:07;;;;;;;0.10;0.10;;;;;;;8.03;77.90;100746.41;7371037;19;20017;-64
2024/01/26 02:28:33;;;;;;;0.10;0.10;;;;;;;7.96;77.96;100757.75;7368223;19;20043;-64
2024/01/26 02:30:59;;;;;;;0.10;0.10;;;;;;;7.93;78.09;100771.63;7356278;19;20007;-64
2024/01/26 02:33:24;;;;;;;0.00;0.00;;;;;;;7.88;78.10;100773.41;7365303;19;20022;-64
2024/01/26 02:35:49;;;;;;;0.10;0.10;;;;;;;7.80;77.82;100781.28;7365984;19;20013;-64
2024/01/26 02:38:15;;;;;;;0.10;0.10;;;;;;;7.86;78.27;100783.00;7367078;19;20010;-64
2024/01/26 02:40:40;;;;;;;0.00;0.00;;;;;;;7.70;78.14;100776.19;7365720;19;20478;-64
2024/01/26 02:43:06;;;;;;;0.10;0.10;;;;;;;7.79;78.17;100789.09;7367595;19;20002;-64
2024/01/26 02:45:31;;;;;;;0.10;0.10;;;;;;;7.75;78.45;100795.22;7368633;19;20840;-64
2024/01/26 02:47:57;;;;;;;0.00;0.00;;;;;;;7.73;78.20;100791.78;7369682;19;20065;-64
2024/01/26 02:50:22;;;;;;;0.00;0.00;;;;;;;7.80;77.50;100820.28;7362743;19;20032;-64
2024/01/26 02:52:48;;;;;;;0.10;0.10;;;;;;;7.76;77.48;100825.56;7359995;19;20481;-65
2024/01/26 02:55:13;;;;;;;0.00;0.00;;;;;;;7.67;77.52;100828.22;7369807;19;20015;-65
2024/01/26 02:57:39;;;;;;;0.10;0.10;;;;;;;7.63;77.78;100847.31;7359098;19;20029;-65
2024/01/26 03:00:07;;;;;;;0.10;0.10;;;;;;;7.57;77.44;100862.97;7358417;19;20904;-65
2024/01/26 03:02:32;;;;;;;0.00;0.00;;;;;;;7.53;77.19;100878.56;7363846;19;20011;-65
2024/01/26 03:04:58;;;;;;;0.10;0.10;;;;;;;7.19;77.80;100853.69;7360252;19;20379;-65
2024/01/26 03:07:23;;;;;;;0.10;0.10;;;;;;;7.36;77.18;100910.75;7365552;19;20407;-65
2024/01/26 03:09:49;;;;;;;0.10;0.10;;;;;;;7.40;77.48;100915.91;7365841;19;20906;-65
2024/01/26 03:12:14;;;;;;;0.10;0.10;;;;;;;7.37;77.43;100933.25;7365601;19;20010;-65
2024/01/26 03:14:39;;;;;;;0.08;0.08;;;;;;;7.20;77.48;100917.78;7364539;19;20015;-65
2024/01/26 03:17:05;;;;;;;0.10;0.10;;;;;;;7.26;77.62;100936.78;7362752;19;20003;-65
2024/01/26 03:19:35;;;;;;;0.00;0.00;;;;;;;7.08;77.07;100930.78;7365335;19;20014;-65
2024/01/26 03:22:00;;;;;;;0.10;0.10;;;;;;;7.00;77.32;100921.31;7359834;19;20014;-65
2024/01/26 03:24:26;;;;;;;0.10;0.10;;;;;;;7.21;77.28;100968.84;7365380;19;20021;-65
2024/01/26 03:26:51;;;;;;;0.10;0.10;;;;;;;7.14;77.33;100973.16;7362001;19;20811;-65
2024/01/26 03:29:17;;;;;;;0.10;0.10;;;;;;;6.95;76.94;100962.03;7365169;19;20019;-65
2024/01/26 03:31:42;;;;;;;0.05;0.05;;;;;;;6.96;77.25;100992.28;7353245;19;20382;-65
2024/01/26 03:34:08;;;;;;;0.10;0.10;;;;;;;6.94;77.09;101001.81;7362749;19;20011;-65
2024/01/26 03:36:33;;;;;;;0.10;0.10;;;;;;;6.94;77.04;101035.56;7361482;19;20018;-65
2024/01/26 03:38:58;;;;;;;0.10;0.10;;;;;;;6.85;77.27;101040.78;7368637;19;20018;-65
2024/01/26 03:41:24;;;;;;;0.10;0.10;;;;;;;6.82;77.20;101053.75;7372982;19;20021;-65
2024/01/26 03:43:52;;;;;;;0.10;0.10;;;;;;;6.73;76.96;101079.72;7368714;19;20018;-65
2024/01/26 03:46:19;;;;;;;0.00;0.00;;;;;;;6.76;77.05;101067.63;7364021;19;20155;-65
2024/01/26 03:48:44;;;;;;;0.10;0.10;;;;;;;6.56;77.24;101076.28;7362504;19;20346;-65
2024/01/26 03:51:11;;;;;;;0.10;0.10;;;;;;;6.52;77.22;101087.53;7369002;19;20010;-65
2024/01/26 03:53:36;;;;;;;0.10;0.10;;;;;;;6.58;77.09;101116.94;7360168;19;20007;-65
2024/01/26 03:56:02;;;;;;;0.10;0.10;;;;;;;6.35;77.51;101088.41;7365118;19;20018;-65
2024/01/26 03:58:28;;;;;;;0.10;0.10;;;;;;;6.45;77.67;101136.81;7366215;19;20006;-65
2024/01/26 04:00:53;;;;;;;0.10;0.10;;;;;;;6.48;77.62;101152.38;7375967;19;20021;-65
2024/01/26 04:03:18;;;;;;;0.10;0.10;;;;;;;6.49;77.17;101169.69;7372854;19;20006;-65
2024/01/26 04:05:44;;;;;;;0.10;0.10;;;;;;;6.38;77.40;101160.13;7367911;19;20017;-65
2024/01/26 04:08:11;;;;;;;0.00;0.00;;;;;;;6.35;77.62;101174.00;7367698;19;20010;-65
2024/01/26 04:10:36;;;;;;;0.10;0.10;;;;;;;6.37;77.79;101190.41;7372125;19;20490;-65
2024/01/26 04:13:02;;;;;;;0.03;0.03;;;;;;;6.21;77.50;101175.69;7370368;19;20311;-65
2024/01/26 04:15:27;;;;;;;0.10;0.10;;;;;;;6.27;77.78;101198.16;7372393;19;20033;-65
2024/01/26 04:17:53;;;;;;;0.00;0.00;;;;;;;6.20;77.38;101207.66;7328672;19;20014;-65
2024/01/26 04:20:19;;;;;;;0.10;0.10;;;;;;;6.29;77.61;101231.03;7370020;19;20010;-65
2024/01/26 04:22:44;;;;;;;0.10;0.10;;;;;;;6.23;77.50;101228.41;7367687;19;20017;-65
2024/01/26 04:25:10;;;;;;;0.10;0.10;;;;;;;6.21;77.70;101238.78;7370315;19;20010;-65
2024/01/26 04:27:36;;;;;;;0.10;0.10;;;;;;;6.04;78.14;101224.03;7370949;19;20014;-65
2024/01/26 04:30:03;;;;;;;0.10;0.10;;;;;;;6.08;77.61;101230.94;7372680;19;20019;-65
2024/01/26 04:32:29;;;;;;;0.10;0.10;;;;;;;5.98;77.93;101228.31;7372215;19;20013;-65
2024/01/26 04:34:55;;;;;;;0.10;0.10;;;;;;;6.05;77.76;101249.09;7363777;19;20031;-65
2024/01/26 04:37:20;;;;;;;0.10;0.10;;;;;;;5.70;77.92;101195.31;7362038;19;20014;-65
2024/01/26 04:39:45;;;;;;;0.10;0.10;;;;;;;5.71;77.78;101217.78;7371687;19;20020;-65
2024/01/26 04:42:11;;;;;;;0.10;0.10;;;;;;;6.05;77.79;101280.19;7367934;19;20023;-65
2024/01/26 04:44:36;;;;;;;0.10;0.10;;;;;;;5.98;77.88;101284.47;7372515;19;20017;-65
2024/01/26 04:47:02;;;;;;;0.00;0.00;;;;;;;5.87;78.18;101265.38;7377917;19;19999;-65
2024/01/26 04:49:28;;;;;;;0.10;0.10;;;;;;;5.95;78.12;101295.69;7370470;19;20544;-65
2024/01/26 04:51:53;;;;;;;0.10;0.10;;;;;;;5.95;77.86;101300.88;7364238;19;20014;-65
2024/01/26 04:54:19;;;;;;;0.08;0.08;;;;;;;5.66;77.89;101268.69;7370063;19;20037;-65
2024/01/26 04:56:44;;;;;;;0.03;0.03;;;;;;;5.86;77.77;101311.16;7370380;19;20006;-65
2024/01/26 04:59:09;;;;;;;0.10;0.10;;;;;;;5.86;77.86;101321.53;7372148;19;20027;-66
2024/01/26 05:01:35;;;;;;;0.08;0.08;;;;;;;5.84;77.70;101320.66;7365767;19;20003;-65
2024/01/26 05:04:03;;;;;;;0.10;0.10;;;;;;;5.79;77.99;101319.75;7370483;19;20011;-65
2024/01/26 05:06:29;;;;;;;0.10;0.10;;;;;;;5.71;77.75;101317.09;7365680;19;20101;-65
2024/01/26 05:08:54;;;;;;;0.10;0.10;;;;;;;5.66;77.88;101317.94;7369433;19;20074;-65
2024/01/26 05:11:20;;;;;;;0.10;0.10;;;;;;;5.79;77.72;101345.69;7366954;19;20865;-65
2024/01/26 05:13:46;;;;;;;0.10;0.10;;;;;;;5.78;77.98;101359.50;7365015;19;20014;-65
2024/01/26 05:16:11;;;;;;;0.05;0.05;;;;;;;5.70;77.56;101356.84;7361666;19;20002;-65
2024/01/26 05:18:37;;;;;;;0.10;0.10;;;;;;;5.71;77.87;101373.25;7368473;19;20411;-66
2024/01/26 05:21:02;;;;;;;0.03;0.03;;;;;;;5.75;77.94;101380.19;7367591;19;20011;-65
2024/01/26 05:23:27;;;;;;;0.10;0.10;;;;;;;5.72;77.59;101385.34;7366120;19;20015;-65
2024/01/26 05:25:53;;;;;;;0.10;0.10;;;;;;;5.70;77.89;101393.09;7366999;19;20006;-65
2024/01/26 05:28:18;;;;;;;0.10;0.10;;;;;;;5.67;77.92;101392.22;7368300;19;20010;-65
2024/01/26 05:30:44;;;;;;;0.10;0.10;;;;;;;5.66;77.77;101408.63;7353229;19;20014;-65
2024/01/26 05:33:10;;;;;;;0.10;0.10;;;;;;;5.66;78.26;101413.78;7371011;19;20010;-65
2024/01/26 05:35:35;;;;;;;0.00;0.00;;;;;;;5.63;77.72;101417.25;7335743;19;20003;-65
2024/01/26 05:38:00;;;;;;;0.10;0.10;;;;;;;5.28;78.01;101366.84;7368306;19;20014;-65
2024/01/26 05:40:26;;;;;;;0.00;0.00;;;;;;;5.66;78.28;101447.47;7367312;19;20002;-65
2024/01/26 05:42:52;;;;;;;0.00;0.00;;;;;;;5.52;77.86;101413.66;7367159;19;20031;-65
2024/01/26 05:45:18;;;;;;;0.08;0.08;;;;;;;5.52;78.34;101417.97;7370457;19;20775;-66
2024/01/26 05:47:43;;;;;;;0.00;0.00;;;;;;;5.49;78.01;101436.97;7373050;19;20014;-65
2024/01/26 05:50:09;;;;;;;0.00;0.00;;;;;;;5.41;78.25;101444.63;7367611;19;20022;-65
2024/01/26 05:52:34;;;;;;;0.10;0.10;;;;;;;5.50;78.06;101455.97;7367454;19;20018;-66
2024/01/26 05:55:00;;;;;;;0.10;0.10;;;;;;;5.37;78.13;101445.50;7367324;19;20007;-66
2024/01/26 05:57:25;;;;;;;0.10;0.10;;;;;;;5.40;78.01;101450.69;7368848;19;20750;-66
2024/01/26 05:59:50;;;;;;;0.10;0.10;;;;;;;5.55;77.92;101480.19;7368359;19;20014;-65
2024/01/26 06:02:16;;;;;;;0.10;0.10;;;;;;;5.49;78.48;101477.53;7365168;19;20439;-65
2024/01/26 06:04:42;;;;;;;0.10;0.10;;;;;;;5.39;78.11;101469.66;7370056;19;20545;-65
2024/01/26 06:07:07;;;;;;;0.10;0.10;;;;;;;5.50;78.17;101500.00;7364087;19;20498;-65
2024/01/26 06:09:32;;;;;;;0.10;0.10;;;;;;;5.50;78.16;101512.97;7368222;19;20042;-65
2024/01/26 06:11:58;;;;;;;0.10;0.10;;;;;;;5.32;78.33;101480.81;7369140;19;20010;-66
2024/01/26 06:14:23;;;;;;;0.10;0.10;;;;;;;5.42;77.82;101498.22;7363501;19;20006;-65
2024/01/26 06:16:49;;;;;;;0.10;0.10;;;;;;;5.46;78.38;101512.91;7363421;19;20044;-66
2024/01/26 06:19:15;;;;;;;0.10;0.10;;;;;;;5.44;78.05;101517.22;7372462;19;20041;-66
2024/01/26 06:21:41;;;;;;;0.10;0.10;;;;;;;5.26;78.12;101493.69;7369635;19;20019;-65
2024/01/26 06:24:06;;;;;;;0.10;0.10;;;;;;;5.42;78.27;101537.06;7365097;19;20014;-66
2024/01/26 06:26:31;;;;;;;0.00;0.00;;;;;;;5.30;78.13;101521.34;7366656;19;20014;-65
2024/01/26 06:28:57;;;;;;;0.08;0.08;;;;;;;5.39;78.30;101530.97;7365500;19;20018;-65
2024/01/26 06:31:26;;;;;;;0.00;0.00;;;;;;;5.39;78.03;101542.19;7368009;19;20028;-66
2024/01/26 06:33:52;;;;;;;0.10;0.10;;;;;;;5.37;77.89;101543.00;7366803;19;20003;-65
2024/01/26 06:36:17;;;;;;;0.10;0.10;;;;;;;5.34;78.03;101538.69;7368443;19;20049;-66
2024/01/26 06:38:42;;;;;;;0.10;0.10;;;;;;;5.16;77.84;101512.53;7366467;19;20022;-66
2024/01/26 06:41:08;;;;;;;0.10;0.10;;;;;;;5.34;78.15;101533.50;7359921;19;20336;-65
2024/01/26 06:43:33;;;;;;;0.10;0.10;;;;;;;5.26;77.83;101524.75;7365761;19;20611;-65
2024/01/26 06:45:59;;;;;;;0.10;0.10;;;;;;;5.20;78.15;101514.31;7370893;19;20679;-65
2024/01/26 06:48:26;;;;;;;0.03;0.03;;;;;;;5.21;77.65;101531.59;7367112;19;20017;-66
2024/01/26 06:50:54;;;;;;;0.00;0.00;;;;;;;5.32;78.23;101555.94;7367778;19;20538;-65
2024/01/26 06:53:21;;;;;;;0.03;0.03;;;;;;;5.33;78.31;101556.78;7361746;19;20006;-65
2024/01/26 06:55:47;;;;;;;0.10;0.10;;;;;;;5.28;77.77;101548.97;7358760;19;20003;-65
2024/01/26 06:58:12;;;;;;;0.10;0.10;;;;;;;5.01;77.91;101507.19;7359708;19;20008;-65
2024/01/26 07:00:38;;;;;;;0.00;0.00;;;;;;;5.10;78.00;101517.66;7362747;19;20066;-65
2024/01/26 07:03:04;;;;;;;0.08;0.08;;;;;;;5.32;77.86;101571.47;7357019;19;20011;-65
2024/01/26 07:05:29;;;;;;;0.10;0.10;;;;;;;5.16;78.03;101548.78;7367223;19;20006;-65
2024/01/26 07:07:56;;;;;;;0.10;0.10;;;;;;;5.23;78.02;101562.72;7364146;19;20041;-65
2024/01/26 07:10:22;;;;;;;0.10;0.10;;;;;;;5.27;78.28;101570.53;7372352;19;19995;-65
2024/01/26 07:12:48;;;;;;;0.03;0.03;;;;;;;5.25;77.89;101580.00;7363047;19;20043;-65
2024/01/26 07:15:13;;;;;;;0.10;0.10;;;;;;;5.21;78.20;101583.38;7366980;19;20002;-65
2024/01/26 07:17:39;;;;;;;0.10;0.10;;;;;;;5.27;78.00;101599.03;7366146;19;20003;-65
2024/01/26 07:20:05;;;;;;;0.10;0.10;;;;;;;5.22;78.04;101595.50;7361285;19;20021;-65
2024/01/26 07:22:30;;;;;;;0.10;0.10;;;;;;;5.23;77.92;101612.78;7369513;19;20022;-65
2024/01/26 07:24:56;;;;;;;0.10;0.10;;;;;;;5.19;78.19;101616.16;7358731;19;20505;-65
2024/01/26 07:27:21;;;;;;;0.10;0.10;;;;;;;5.21;78.32;101624.81;7365149;19;20018;-65
2024/01/26 07:29:47;;;;;;;0.00;0.00;;;;;;;5.16;77.81;101627.34;7362008;19;20022;-65
2024/01/26 07:32:13;;;;;;;0.10;0.10;;;;;;;4.92;78.07;101591.63;7363712;19;20082;-65
2024/01/26 07:34:39;;;;;;;0.10;0.10;;;;;;;5.05;78.36;101604.75;7359952;19;20011;-65
2024/01/26 07:37:04;;;;;;;0.10;0.10;;;;;;;5.16;78.13;101626.47;7358171;19;20009;-65
2024/01/26 07:39:29;;;;;;;0.10;0.10;;;;;;;5.10;78.08;101631.56;7358586;19;20373;-65
2024/01/26 07:41:55;;;;;;;0.10;0.10;;;;;;;5.20;78.41;101651.56;7364522;19;20006;-66
2024/01/26 07:44:20;;;;;;;0.00;0.00;;;;;;;5.18;78.15;101656.72;7362289;19;20017;-65
2024/01/26 07:46:46;;;;;;;0.03;0.03;;;;;;;5.07;78.55;101641.84;7361066;19;20010;-65
2024/01/26 07:49:11;;;;;;;0.10;0.10;;;;;;;5.13;78.14;101662.69;7363025;19;20751;-65
2024/01/26 07:51:37;;;;;;;0.03;0.03;;;;;;;5.06;78.13;101663.41;7363439;19;20003;-65
2024/01/26 07:54:02;;;;;;;0.08;0.08;;;;;;;5.01;77.95;101658.16;7357900;19;20030;-65
2024/01/26 07:56:28;;;;;;;0.10;0.10;;;;;;;5.12;78.21;101686.81;7362642;19;20060;-65
2024/01/26 07:58:53;;;;;;;0.10;0.10;;;;;;;4.78;78.44;101629.34;7364327;19;20993;-65
2024/01/26 08:01:19;;;;;;;0.08;0.08;;;;;;;5.10;78.40;101704.06;7361891;19;19995;-65
2024/01/26 08:03:44;;;;;;;0.00;0.00;;;;;;;5.02;78.12;101692.69;7366370;19;20014;-65
2024/01/26 08:06:09;;;;;;;0.00;0.00;;;;;;;4.89;78.37;101670.94;7359850;19;20058;-65
2024/01/26 08:08:35;;;;;;;0.00;0.00;;;;;;;5.09;78.53;101717.84;7363798;19;20010;-65
2024/01/26 08:11:00;;;;;;;0.00;0.00;;;;;;;5.11;78.11;101732.53;7361978;19;20391;-65
2024/01/26 08:13:26;;;;;;;0.10;0.10;;;;;;;5.11;78.15;101742.91;7362608;19;20018;-65
2024/01/26 08:15:51;;;;;;;0.00;0.00;;;;;;;5.09;78.39;101748.91;7362470;19;20547;-65
2024/01/26 08:18:17;;;;;;;0.00;0.00;;;;;;;5.07;78.68;101755.75;7364955;19;20015;-65
2024/01/26 08:20:42;;;;;;;0.10;0.10;;;;;;;4.99;78.62;101752.19;7363815;19;20082;-65
2024/01/26 08:23:08;;;;;;;0.00;0.00;;;;;;;5.04;78.85;101772.13;7361211;19;20003;-65
2024/01/26 08:25:33;;;;;;;0.10;0.10;;;;;;;4.97;78.88;101766.81;7363017;19;20010;-65
2024/01/26 08:27:59;;;;;;;0.00;0.00;;;;;;;5.14;78.89;101810.28;7363622;19;19998;-65
2024/01/26 08:30:24;;;;;;;0.10;0.10;;;;;;;5.08;79.01;101801.53;7358287;19;20028;-65
2024/01/26 08:32:51;;;;;;;0.10;0.10;;;;;;;5.01;78.64;101797.97;7354067;19;20421;-65
2024/01/26 08:35:16;;;;;;;0.10;0.10;;;;;;;5.01;78.96;101808.31;7362351;19;20781;-65
2024/01/26 08:37:42;;;;;;;0.00;0.00;;;;;;;5.12;78.59;101831.81;7364208;19;20022;-65
2024/01/26 08:40:09;;;;;;;0.00;0.00;;;;;;;5.09;78.62;101834.34;7359721;19;20006;-65
2024/01/26 08:42:35;;;;;;;0.10;0.10;;;;;;;5.13;78.80;101864.63;7363224;19;20588;-65
2024/01/26 08:45:00;;;;;;;0.10;0.10;;;;;;;5.13;78.87;101851.69;7332864;19;20010;-65
2024/01/26 08:47:26;;;;;;;0.10;0.10;;;;;;;4.96;78.54;101841.00;7364763;19;20079;-65
2024/01/26 08:49:51;;;;;;;0.10;0.10;;;;;;;5.12;78.99;101868.03;7365760;19;20002;-65
2024/01/26 08:52:17;;;;;;;0.00;0.00;;;;;;;5.13;78.79;101881.03;7368228;19;20097;-65
2024/01/26 08:54:42;;;;;;;0.00;0.00;;;;;;;5.04;78.94;101870.50;7363330;19;20272;-65
2024/01/26 08:57:08;;;;;;;0.08;0.08;;;;;;;5.14;78.89;101892.25;7366495;19;20018;-65
2024/01/26 08:59:33;;;;;;;0.10;0.10;;;;;;;5.06;78.96;101881.75;7367562;19;20026;-65
2024/01/26 09:01:58;;;;;;;0.10;0.10;;;;;;;5.06;79.19;101899.00;7367415;19;20019;-66
2024/01/26 09:04:24;;;;;;;0.03;0.03;;;;;;;5.06;79.19;101896.41;7364694;19;20006;-65
2024/01/26 09:06:49;;;;;;;0.10;0.10;;;;;;;5.13;78.81;101906.06;7371500;19;20018;-65
2024/01/26 09:09:15;;;;;;;0.05;0.05;;;;;;;4.85;78.71;101858.94;7368082;19;20493;-65
2024/01/26 09:11:40;;;;;;;0.08;0.08;;;;;;;5.26;78.83;101933.03;7375946;19;20018;-65
2024/01/26 09:14:06;;;;;;;0.10;0.10;;;;;;;5.17;79.01;101918.19;7364161;19;20480;-65
2024/01/26 09:16:31;;;;;;;0.10;0.10;;;;;;;4.89;79.20;101888.34;7366886;19;20022;-65
2024/01/26 09:18:57;;;;;;;0.10;0.10;;;;;;;5.26;79.19;101933.91;7365276;19;20002;-65
2024/01/26 09:21:22;;;;;;;0.00;0.00;;;;;;;5.36;79.20;101947.91;7375605;19;20014;-65
2024/01/26 09:23:48;;;;;;;0.10;0.10;;;;;;;5.27;79.09;101929.59;7370898;19;20074;-65
2024/01/26 09:26:13;;;;;;;0.10;0.10;;;;;;;5.36;79.61;101946.19;7369438;19;20043;-65
2024/01/26 09:28:39;;;;;;;0.00;0.00;;;;;;;5.54;79.77;101965.53;7369294;19;20006;-65
2024/01/26 09:31:04;;;;;;;0.10;0.10;;;;;;;5.66;79.81;101958.84;7367920;19;20014;-66
2024/01/26 09:33:30;;;;;;;0.10;0.10;;;;;;;5.62;79.79;101943.19;7371629;19;20086;-66
2024/01/26 09:35:56;;;;;;;0.00;0.00;;;;;;;5.75;79.66;101934.81;7376180;19;20021;-65
2024/01/26 09:38:22;;;;;;;0.10;0.10;;;;;;;5.83;79.34;101928.03;7366923;19;20578;-65
2024/01/26 09:40:48;;;;;;;0.10;0.10;;;;;;;6.14;79.48;101960.53;7365452;19;20014;-65
2024/01/26 09:43:15;;;;;;;0.10;0.10;;;;;;;6.24;79.45;101962.44;7368669;19;20007;-65
2024/01/26 09:45:40;;;;;;;0.10;0.10;;;;;;;6.46;79.23;101979.19;7368257;19;20022;-65
2024/01/26 09:48:06;;;;;;;0.10;0.10;;;;;;;6.57;78.69;101981.06;7367766;19;20014;-65
2024/01/26 09:50:32;;;;;;;0.10;0.10;;;;;;;6.78;79.03;101994.31;7360475;19;20007;-65
2024/01/26 09:52:58;;;;;;;0.00;0.00;;;;;;;6.87;78.49;101981.47;7365817;19;20002;-65
2024/01/26 09:55:25;;;;;;;0.10;0.10;;;;;;;7.02;78.41;101992.06;7367443;19;20356;-65
2024/01/26 09:57:51;;;;;;;0.10;0.10;;;;;;;7.16;78.20;101999.16;7368007;19;20006;-65
2024/01/26 10:00:17;;;;;;;0.10;0.10;;;;;;;7.38;78.23;102019.34;7363478;19;20626;-65
2024/01/26 10:02:43;;;;;;;0.10;0.10;;;;;;;7.41;78.21;102011.59;7369412;19;20014;-65
2024/01/26 10:05:09;;;;;;;0.10;0.10;;;;;;;7.64;78.24;102019.63;7362869;19;20034;-65
2024/01/26 10:07:35;;;;;;;0.10;0.10;;;;;;;7.77;78.16;102031.91;7369936;19;20010;-65
2024/01/26 10:10:01;;;;;;;0.10;0.10;;;;;;;7.77;78.14;102005.91;7362830;19;20018;-65
2024/01/26 10:12:26;;;;;;;0.10;0.10;;;;;;;7.62;77.39;101958.09;7367695;19;20094;-65
2024/01/26 10:15:07;;;;;;;0.00;0.00;;;;;;;8.21;77.70;102038.34;7361315;19;20017;-65
2024/01/26 10:17:33;;;;;;;0.10;0.10;;;;;;;8.21;77.74;102027.94;7367789;19;20022;-65
2024/01/26 10:20:18;;;;;;;0.10;0.10;;;;;;;8.50;78.00;102057.72;7366593;19;20010;-65
2024/01/26 10:22:47;;;;;;;0.10;0.10;;;;;;;8.58;77.24;102045.63;7360682;19;20497;-65
2024/01/26 10:25:13;;;;;;;0.10;0.10;;;;;;;8.62;76.59;102040.44;7362602;19;20499;-65
2024/01/26 10:27:40;;;;;;;0.10;0.10;;;;;;;8.80;76.18;102045.78;7364426;19;20034;-65
2024/01/26 10:30:06;;;;;;;0.10;0.10;;;;;;;8.84;76.17;102047.53;7370542;19;20049;-65
2024/01/26 10:32:32;;;;;;;0.10;0.10;;;;;;;9.09;76.01;102065.06;7365316;19;20011;-65
2024/01/26 10:34:59;;;;;;;0.10;0.10;;;;;;;9.24;75.39;102063.41;7360034;19;20681;-65
2024/01/26 10:37:30;;;;;;;0.10;0.10;;;;;;;9.44;75.67;102072.16;7368238;19;20010;-65
2024/01/26 10:39:56;;;;;;;0.10;0.10;;;;;;;9.55;75.49;102080.91;7368353;19;20026;-65
2024/01/26 10:42:23;;;;;;;0.10;0.10;;;;;;;9.54;74.76;102058.31;7363106;19;20490;-65
2024/01/26 10:44:49;;;;;;;0.10;0.10;;;;;;;9.80;74.42;102092.28;7363103;19;20003;-65
2024/01/26 10:47:16;;;;;;;0.10;0.10;;;;;;;10.00;74.10;102094.94;7372703;19;20073;-65
2024/01/26 10:49:42;;;;;;;0.10;0.10;;;;;;;10.12;73.27;102100.16;7362430;19;20014;-65
2024/01/26 10:52:09;;;;;;;0.10;0.10;;;;;;;10.33;73.79;102101.09;7367627;19;20021;-65
2024/01/26 10:54:35;;;;;;;0.10;0.10;;;;;;;10.37;73.08;102095.00;7361746;19;20050;-65
2024/01/26 10:57:00;;;;;;;0.10;0.10;;;;;;;10.62;73.21;102107.19;7368928;19;20085;-65
2024/01/26 10:59:27;;;;;;;0.10;0.10;;;;;;;10.86;73.44;102118.53;7365233;19;20006;-65
2024/01/26 11:01:53;;;;;;;0.20;0.20;;;;;;;11.05;72.96;102116.72;7365717;19;20006;-65
2024/01/26 11:04:19;;;;;;;0.10;0.10;;;;;;;11.18;72.68;102119.31;7353027;19;20014;-65
2024/01/26 11:06:44;;;;;;;0.10;0.10;;;;;;;11.30;71.22;102130.59;7368092;19;19994;-65
2024/01/26 11:09:11;;;;;;;0.10;0.10;;;;;;;11.45;72.39;102138.41;7367891;19;20013;-65
2024/01/26 11:11:40;;;;;;;0.10;0.10;;;;;;;11.57;70.89;102122.69;7370774;19;20810;-65
2024/01/26 11:14:05;;;;;;;0.10;0.10;;;;;;;11.72;71.22;102136.59;7364600;19;20010;-65
2024/01/26 11:16:43;;;;;;;0.10;0.10;;;;;;;11.94;72.28;102146.97;7363069;19;19995;-65
2024/01/26 11:19:20;;;;;;;0.10;0.10;;;;;;;12.01;71.21;102153.03;7361058;19;20031;-65
2024/01/26 11:21:47;;;;;;;0.10;0.10;;;;;;;12.17;70.48;102148.59;7367454;19;20007;-65
2024/01/26 11:24:17;;;;;;;0.10;0.10;;;;;;;12.25;70.45;102138.06;7364048;19;20016;-65
2024/01/26 11:26:55;;;;;;;0.10;0.10;;;;;;;12.44;69.90;102144.91;7366027;19;20010;-65